< < Back
Terminal Aerodrome Forecast


Current Version              Previous Versions:   1  2  3  4  5  6  7  8  9  

Terminal Aerodrome Forecast

157
FTUS42 KGSP 260540
TAFAND
TAF
KAND 260540Z 2606/2706 18004KT P6SM SCT070
     FM261400 25005KT P6SM FEW150
     FM261800 23007KT P6SM SCT045 PROB30 2700/2701 4SM -TSRA
      BKN060CB
     FM270200 21003KT P6SM SCT060=

Latest METAR

256
SAUS70 KWBC 260600 RRB
MTRAND
METAR KAND 260556Z AUTO 16007KT 10SM -RA OVC100 26/22 A3003 RMK AO2
RAB42 SLP158 P0000 60000 T02610222 10322 20261 58006


USA.gov is the U.S. government's official web portal to all federal, state and local government web resources and services.